UNEE/KEJ METAR and TAF weather

Enter ICAO airport designator
Station Type Date Time Source
UNEE METAR 2024/02/26 17:00 UTC NOAA

UNEE 261700Z 00000MPS 7000 -SN BKN022 M15/M17 Q1033 R23/////// NOSIG RMK QFE752


Station Type Date Time Source
UNEE Decoded METAR 2024/02/26 17:00 UTC NOAA

Kemerovo, Russia (UNEE) 55-19-48N 086-04-48E
Feb 26, 2024 - 12:00 PM EST / 2024.02.26 1700 UTC
Wind: Calm:0
Visibility: 4 mile(s):0
Sky conditions: mostly cloudy
Weather: light snow
Temperature: 5 F (-15 C)
Dew Point: 1 F (-17 C)
Relative Humidity: 84%
Pressure (altimeter): 30.50 in. Hg (1033 hPa)
ob: UNEE 261700Z 00000MPS 7000 -SN BKN022 M15/M17 Q1033 R23/////// NOSIG RMK QFE752
cycle: 17

Station Type Date Time Source
UNEE TAF 2024/02/26 15:25 UTC NOAA